sensor_id;sensor_type;location;lat;lon;timestamp;temperature;humidity
17146;DHT22;8688;54.444;18.444;2023-04-01T00:00:12;4.90;99.90
17146;DHT22;8688;54.444;18.444;2023-04-01T00:02:40;4.90;99.90
17146;DHT22;8688;54.444;18.444;2023-04-01T00:05:10;4.80;99.90
17146;DHT22;8688;54.444;18.444;2023-04-01T00:07:38;4.70;99.90
17146;DHT22;8688;54.444;18.444;2023-04-01T00:10:07;4.60;99.90
17146;DHT22;8688;54.444;18.444;2023-04-01T00:12:35;4.50;99.90
17146;DHT22;8688;54.444;18.444;2023-04-01T00:15:04;4.50;99.90
17146;DHT22;8688;54.444;18.444;2023-04-01T00:17:32;4.40;99.90
17146;DHT22;8688;54.444;18.444;2023-04-01T00:19:59;4.40;99.90
17146;DHT22;8688;54.444;18.444;2023-04-01T00:22:30;4.30;99.90
17146;DHT22;8688;54.444;18.444;2023-04-01T00:24:57;4.30;99.90
17146;DHT22;8688;54.444;18.444;2023-04-01T00:27:25;4.20;99.90
17146;DHT22;8688;54.444;18.444;2023-04-01T00:29:52;4.20;99.90
17146;DHT22;8688;54.444;18.444;2023-04-01T00:32:19;4.20;99.90
17146;DHT22;8688;54.444;18.444;2023-04-01T00:34:50;4.20;99.90
17146;DHT22;8688;54.444;18.444;2023-04-01T00:37:18;4.20;99.90
17146;DHT22;8688;54.444;18.444;2023-04-01T00:39:48;4.20;99.90
17146;DHT22;8688;54.444;18.444;2023-04-01T00:42:15;4.10;99.90
17146;DHT22;8688;54.444;18.444;2023-04-01T00:44:45;4.10;99.90
17146;DHT22;8688;54.444;18.444;2023-04-01T00:47:15;4.00;99.90
17146;DHT22;8688;54.444;18.444;2023-04-01T00:49:45;3.90;99.90
17146;DHT22;8688;54.444;18.444;2023-04-01T00:52:16;3.80;99.90
17146;DHT22;8688;54.444;18.444;2023-04-01T00:54:48;3.80;99.90
17146;DHT22;8688;54.444;18.444;2023-04-01T00:57:20;3.80;99.90
17146;DHT22;8688;54.444;18.444;2023-04-01T00:59:50;3.80;99.90
17146;DHT22;8688;54.444;18.444;2023-04-01T01:02:20;3.70;99.90
17146;DHT22;8688;54.444;18.444;2023-04-01T01:04:47;3.70;99.90
17146;DHT22;8688;54.444;18.444;2023-04-01T01:07:22;3.70;99.90
17146;DHT22;8688;54.444;18.444;2023-04-01T01:10:02;3.60;99.90
17146;DHT22;8688;54.444;18.444;2023-04-01T01:12:36;3.60;99.90
17146;DHT22;8688;54.444;18.444;2023-04-01T01:15:13;3.50;99.90
17146;DHT22;8688;54.444;18.444;2023-04-01T01:17:53;3.40;99.90
17146;DHT22;8688;54.444;18.444;2023-04-01T01:20:43;3.40;99.90
17146;DHT22;8688;54.444;18.444;2023-04-01T01:26:39;3.30;99.90
17146;DHT22;8688;54.444;18.444;2023-04-01T01:29:26;3.30;99.90
17146;DHT22;8688;54.444;18.444;2023-04-01T01:32:03;3.20;99.90
17146;DHT22;8688;54.444;18.444;2023-04-01T01:34:40;3.20;99.90
17146;DHT22;8688;54.444;18.444;2023-04-01T01:37:12;3.20;99.90
17146;DHT22;8688;54.444;18.444;2023-04-01T01:39:43;3.20;99.90
17146;DHT22;8688;54.444;18.444;2023-04-01T01:42:14;3.10;99.90
17146;DHT22;8688;54.444;18.444;2023-04-01T01:44:44;3.10;99.90
17146;DHT22;8688;54.444;18.444;2023-04-01T01:47:14;3.10;99.90
17146;DHT22;8688;54.444;18.444;2023-04-01T01:49:43;3.10;99.90
17146;DHT22;8688;54.444;18.444;2023-04-01T01:52:13;3.10;99.90
17146;DHT22;8688;54.444;18.444;2023-04-01T01:54:47;3.10;99.90
17146;DHT22;8688;54.444;18.444;2023-04-01T01:57:17;3.00;99.90
17146;DHT22;8688;54.444;18.444;2023-04-01T01:59:48;3.10;99.90
17146;DHT22;8688;54.444;18.444;2023-04-01T02:02:17;3.10;99.90
17146;DHT22;8688;54.444;18.444;2023-04-01T02:04:46;3.10;99.90
17146;DHT22;8688;54.444;18.444;2023-04-01T02:07:19;3.10;99.90
17146;DHT22;8688;54.444;18.444;2023-04-01T02:09:49;3.10;99.90
17146;DHT22;8688;54.444;18.444;2023-04-01T02:12:19;3.10;99.90
17146;DHT22;8688;54.444;18.444;2023-04-01T02:14:52;3.10;99.90
17146;DHT22;8688;54.444;18.444;2023-04-01T02:17:21;3.10;99.90
17146;DHT22;8688;54.444;18.444;2023-04-01T02:19:52;3.10;99.90
17146;DHT22;8688;54.444;18.444;2023-04-01T02:22:24;3.10;99.90
17146;DHT22;8688;54.444;18.444;2023-04-01T02:24:57;3.10;99.90
17146;DHT22;8688;54.444;18.444;2023-04-01T02:27:25;3.10;99.90
17146;DHT22;8688;54.444;18.444;2023-04-01T02:29:53;3.20;99.90
17146;DHT22;8688;54.444;18.444;2023-04-01T02:32:21;3.20;99.90
17146;DHT22;8688;54.444;18.444;2023-04-01T02:34:49;3.20;99.90
17146;DHT22;8688;54.444;18.444;2023-04-01T02:37:17;3.20;99.90
17146;DHT22;8688;54.444;18.444;2023-04-01T02:39:46;3.20;99.90
17146;DHT22;8688;54.444;18.444;2023-04-01T02:42:14;3.20;99.90
17146;DHT22;8688;54.444;18.444;2023-04-01T02:44:41;3.30;99.90
17146;DHT22;8688;54.444;18.444;2023-04-01T02:47:09;3.30;99.90
17146;DHT22;8688;54.444;18.444;2023-04-01T02:49:36;3.30;99.90
17146;DHT22;8688;54.444;18.444;2023-04-01T02:52:04;3.30;99.90
17146;DHT22;8688;54.444;18.444;2023-04-01T02:54:31;3.30;99.90
17146;DHT22;8688;54.444;18.444;2023-04-01T02:57:00;3.30;99.90
17146;DHT22;8688;54.444;18.444;2023-04-01T02:59:28;3.30;99.90
17146;DHT22;8688;54.444;18.444;2023-04-01T03:01:55;3.40;99.90
17146;DHT22;8688;54.444;18.444;2023-04-01T03:04:23;3.30;99.90
17146;DHT22;8688;54.444;18.444;2023-04-01T03:06:50;3.30;99.90
17146;DHT22;8688;54.444;18.444;2023-04-01T03:09:18;3.30;99.90
17146;DHT22;8688;54.444;18.444;2023-04-01T03:11:45;3.30;99.90
17146;DHT22;8688;54.444;18.444;2023-04-01T03:14:14;3.40;99.90
17146;DHT22;8688;54.444;18.444;2023-04-01T03:16:42;3.40;99.90
17146;DHT22;8688;54.444;18.444;2023-04-01T03:19:09;3.40;99.90
17146;DHT22;8688;54.444;18.444;2023-04-01T03:21:36;3.40;99.90
17146;DHT22;8688;54.444;18.444;2023-04-01T03:24:05;3.40;99.90
17146;DHT22;8688;54.444;18.444;2023-04-01T03:26:33;3.40;99.90
17146;DHT22;8688;54.444;18.444;2023-04-01T03:29:01;3.30;99.90
17146;DHT22;8688;54.444;18.444;2023-04-01T03:31:30;3.30;99.90
17146;DHT22;8688;54.444;18.444;2023-04-01T03:33:57;3.30;99.90
17146;DHT22;8688;54.444;18.444;2023-04-01T03:36:25;3.30;99.90
17146;DHT22;8688;54.444;18.444;2023-04-01T03:38:52;3.30;99.90
17146;DHT22;8688;54.444;18.444;2023-04-01T03:41:20;3.40;99.90
17146;DHT22;8688;54.444;18.444;2023-04-01T03:43:47;3.40;99.90
17146;DHT22;8688;54.444;18.444;2023-04-01T03:46:17;3.40;99.90
17146;DHT22;8688;54.444;18.444;2023-04-01T03:48:46;3.40;99.90
17146;DHT22;8688;54.444;18.444;2023-04-01T03:51:14;3.40;99.90
17146;DHT22;8688;54.444;18.444;2023-04-01T03:53:41;3.40;99.90
17146;DHT22;8688;54.444;18.444;2023-04-01T03:56:09;3.40;99.90
17146;DHT22;8688;54.444;18.444;2023-04-01T03:58:37;3.40;99.90
17146;DHT22;8688;54.444;18.444;2023-04-01T04:01:14;3.50;99.90
17146;DHT22;8688;54.444;18.444;2023-04-01T04:03:41;3.50;99.90
17146;DHT22;8688;54.444;18.444;2023-04-01T04:06:13;3.50;99.90
17146;DHT22;8688;54.444;18.444;2023-04-01T04:08:40;3.50;99.90
17146;DHT22;8688;54.444;18.444;2023-04-01T04:11:08;3.50;99.90
17146;DHT22;8688;54.444;18.444;2023-04-01T04:13:36;3.50;99.90
17146;DHT22;8688;54.444;18.444;2023-04-01T04:16:04;3.50;99.90
17146;DHT22;8688;54.444;18.444;2023-04-01T04:18:32;3.50;99.90
17146;DHT22;8688;54.444;18.444;2023-04-01T04:20:59;3.60;99.90
17146;DHT22;8688;54.444;18.444;2023-04-01T04:23:28;3.60;99.90
17146;DHT22;8688;54.444;18.444;2023-04-01T04:26:00;3.60;99.90
17146;DHT22;8688;54.444;18.444;2023-04-01T04:28:28;3.60;99.90
17146;DHT22;8688;54.444;18.444;2023-04-01T04:30:56;3.70;99.90
17146;DHT22;8688;54.444;18.444;2023-04-01T04:33:24;3.70;99.90
17146;DHT22;8688;54.444;18.444;2023-04-01T04:35:55;3.70;99.90
17146;DHT22;8688;54.444;18.444;2023-04-01T04:38:23;3.70;99.90
17146;DHT22;8688;54.444;18.444;2023-04-01T04:40:52;3.70;99.90
17146;DHT22;8688;54.444;18.444;2023-04-01T04:43:21;3.70;99.90
17146;DHT22;8688;54.444;18.444;2023-04-01T04:45:48;3.80;99.90
17146;DHT22;8688;54.444;18.444;2023-04-01T04:48:16;3.80;99.90
17146;DHT22;8688;54.444;18.444;2023-04-01T04:50:47;3.80;99.90
17146;DHT22;8688;54.444;18.444;2023-04-01T04:53:16;3.80;99.90
17146;DHT22;8688;54.444;18.444;2023-04-01T04:55:44;3.80;99.90
17146;DHT22;8688;54.444;18.444;2023-04-01T04:58:13;3.80;99.90
17146;DHT22;8688;54.444;18.444;2023-04-01T05:00:41;3.80;99.90
17146;DHT22;8688;54.444;18.444;2023-04-01T05:03:09;3.80;99.90
17146;DHT22;8688;54.444;18.444;2023-04-01T05:05:37;3.80;99.90
17146;DHT22;8688;54.444;18.444;2023-04-01T05:08:04;3.80;99.90
17146;DHT22;8688;54.444;18.444;2023-04-01T05:10:32;3.80;99.90
17146;DHT22;8688;54.444;18.444;2023-04-01T05:12:59;3.80;99.90
17146;DHT22;8688;54.444;18.444;2023-04-01T05:15:28;3.80;99.90
17146;DHT22;8688;54.444;18.444;2023-04-01T05:17:55;3.80;99.90
17146;DHT22;8688;54.444;18.444;2023-04-01T05:20:23;3.80;99.90
17146;DHT22;8688;54.444;18.444;2023-04-01T05:22:53;3.80;99.90
17146;DHT22;8688;54.444;18.444;2023-04-01T05:25:22;3.80;99.90
17146;DHT22;8688;54.444;18.444;2023-04-01T05:27:49;3.80;99.90
17146;DHT22;8688;54.444;18.444;2023-04-01T05:30:17;3.80;99.90
17146;DHT22;8688;54.444;18.444;2023-04-01T05:32:46;3.70;99.90
17146;DHT22;8688;54.444;18.444;2023-04-01T05:35:14;3.70;99.90
17146;DHT22;8688;54.444;18.444;2023-04-01T05:37:41;3.80;99.90
17146;DHT22;8688;54.444;18.444;2023-04-01T05:40:09;3.80;99.90
17146;DHT22;8688;54.444;18.444;2023-04-01T05:42:37;3.70;99.90
17146;DHT22;8688;54.444;18.444;2023-04-01T05:45:05;3.70;99.90
17146;DHT22;8688;54.444;18.444;2023-04-01T05:47:33;3.80;99.90
17146;DHT22;8688;54.444;18.444;2023-04-01T05:50:02;3.70;99.90
17146;DHT22;8688;54.444;18.444;2023-04-01T05:52:29;3.70;99.90
17146;DHT22;8688;54.444;18.444;2023-04-01T05:54:57;3.70;99.90
17146;DHT22;8688;54.444;18.444;2023-04-01T05:57:25;3.70;99.90
17146;DHT22;8688;54.444;18.444;2023-04-01T05:59:52;3.70;99.90
17146;DHT22;8688;54.444;18.444;2023-04-01T06:02:20;3.60;99.90
17146;DHT22;8688;54.444;18.444;2023-04-01T06:04:47;3.70;99.90
17146;DHT22;8688;54.444;18.444;2023-04-01T06:07:17;3.70;99.90
17146;DHT22;8688;54.444;18.444;2023-04-01T06:09:45;3.70;99.90
17146;DHT22;8688;54.444;18.444;2023-04-01T06:12:34;3.70;99.90
17146;DHT22;8688;54.444;18.444;2023-04-01T06:15:20;3.70;99.90
17146;DHT22;8688;54.444;18.444;2023-04-01T06:18:00;3.70;99.90
17146;DHT22;8688;54.444;18.444;2023-04-01T06:20:34;3.70;99.90
17146;DHT22;8688;54.444;18.444;2023-04-01T06:23:17;3.70;99.90
17146;DHT22;8688;54.444;18.444;2023-04-01T06:26:03;3.60;99.90
17146;DHT22;8688;54.444;18.444;2023-04-01T06:29:06;3.70;99.90
17146;DHT22;8688;54.444;18.444;2023-04-01T06:31:51;3.70;99.90
17146;DHT22;8688;54.444;18.444;2023-04-01T06:34:45;3.70;99.90
17146;DHT22;8688;54.444;18.444;2023-04-01T06:37:50;3.70;99.90
17146;DHT22;8688;54.444;18.444;2023-04-01T06:43:21;3.60;99.90
17146;DHT22;8688;54.444;18.444;2023-04-01T06:45:57;3.60;99.90
17146;DHT22;8688;54.444;18.444;2023-04-01T06:51:25;3.60;99.90
17146;DHT22;8688;54.444;18.444;2023-04-01T06:54:01;3.60;99.90
17146;DHT22;8688;54.444;18.444;2023-04-01T06:56:32;3.60;99.90
17146;DHT22;8688;54.444;18.444;2023-04-01T06:59:04;3.60;99.90
17146;DHT22;8688;54.444;18.444;2023-04-01T07:01:35;3.60;99.90
17146;DHT22;8688;54.444;18.444;2023-04-01T07:04:09;3.60;99.90
17146;DHT22;8688;54.444;18.444;2023-04-01T07:06:42;3.60;99.90
17146;DHT22;8688;54.444;18.444;2023-04-01T07:09:13;3.50;99.90
17146;DHT22;8688;54.444;18.444;2023-04-01T07:11:45;3.60;99.90
17146;DHT22;8688;54.444;18.444;2023-04-01T07:14:17;3.60;99.90
17146;DHT22;8688;54.444;18.444;2023-04-01T07:16:51;3.60;99.90
17146;DHT22;8688;54.444;18.444;2023-04-01T07:19:21;3.60;99.90
17146;DHT22;8688;54.444;18.444;2023-04-01T07:21:54;3.60;99.90
17146;DHT22;8688;54.444;18.444;2023-04-01T07:24:26;3.60;99.90
17146;DHT22;8688;54.444;18.444;2023-04-01T07:26:57;3.60;99.90
17146;DHT22;8688;54.444;18.444;2023-04-01T07:29:25;3.60;99.90
17146;DHT22;8688;54.444;18.444;2023-04-01T07:32:07;3.60;99.90
17146;DHT22;8688;54.444;18.444;2023-04-01T07:34:41;3.60;99.90
17146;DHT22;8688;54.444;18.444;2023-04-01T07:37:13;3.50;99.90
17146;DHT22;8688;54.444;18.444;2023-04-01T07:39:47;3.50;99.90
17146;DHT22;8688;54.444;18.444;2023-04-01T07:42:26;3.50;99.90
17146;DHT22;8688;54.444;18.444;2023-04-01T07:45:04;3.50;99.90
17146;DHT22;8688;54.444;18.444;2023-04-01T07:47:50;3.50;99.90
17146;DHT22;8688;54.444;18.444;2023-04-01T07:50:25;3.50;99.90
17146;DHT22;8688;54.444;18.444;2023-04-01T07:53:03;3.50;99.90
17146;DHT22;8688;54.444;18.444;2023-04-01T07:55:39;3.40;99.90
17146;DHT22;8688;54.444;18.444;2023-04-01T07:58:16;3.50;99.90
17146;DHT22;8688;54.444;18.444;2023-04-01T08:00:49;3.50;99.90
17146;DHT22;8688;54.444;18.444;2023-04-01T08:03:36;3.50;99.90
17146;DHT22;8688;54.444;18.444;2023-04-01T08:06:13;3.50;99.90
17146;DHT22;8688;54.444;18.444;2023-04-01T08:08:50;3.60;99.90
17146;DHT22;8688;54.444;18.444;2023-04-01T08:11:29;3.60;99.90
17146;DHT22;8688;54.444;18.444;2023-04-01T08:14:07;3.50;99.90
17146;DHT22;8688;54.444;18.444;2023-04-01T08:16:38;3.50;99.90
17146;DHT22;8688;54.444;18.444;2023-04-01T08:19:15;3.50;99.90
17146;DHT22;8688;54.444;18.444;2023-04-01T08:21:51;3.50;99.90
17146;DHT22;8688;54.444;18.444;2023-04-01T08:24:27;3.50;99.90
17146;DHT22;8688;54.444;18.444;2023-04-01T08:26:58;3.50;99.90
17146;DHT22;8688;54.444;18.444;2023-04-01T08:29:34;3.50;99.90
17146;DHT22;8688;54.444;18.444;2023-04-01T08:32:09;3.40;99.90
17146;DHT22;8688;54.444;18.444;2023-04-01T08:34:38;3.40;99.90
17146;DHT22;8688;54.444;18.444;2023-04-01T08:37:11;3.40;99.90
17146;DHT22;8688;54.444;18.444;2023-04-01T08:39:42;3.40;99.90
17146;DHT22;8688;54.444;18.444;2023-04-01T08:42:37;3.50;99.90
17146;DHT22;8688;54.444;18.444;2023-04-01T08:45:21;3.40;99.90
17146;DHT22;8688;54.444;18.444;2023-04-01T08:48:08;3.30;99.90
17146;DHT22;8688;54.444;18.444;2023-04-01T08:51:02;3.30;99.90
17146;DHT22;8688;54.444;18.444;2023-04-01T08:53:48;3.40;99.90
17146;DHT22;8688;54.444;18.444;2023-04-01T08:56:19;3.40;99.90
17146;DHT22;8688;54.444;18.444;2023-04-01T08:59:11;3.40;99.90
17146;DHT22;8688;54.444;18.444;2023-04-01T09:02:01;3.40;99.90
17146;DHT22;8688;54.444;18.444;2023-04-01T09:04:46;3.40;99.90
17146;DHT22;8688;54.444;18.444;2023-04-01T09:07:33;3.50;99.90
17146;DHT22;8688;54.444;18.444;2023-04-01T09:10:20;3.40;99.90
17146;DHT22;8688;54.444;18.444;2023-04-01T09:13:04;3.50;99.90
17146;DHT22;8688;54.444;18.444;2023-04-01T09:16:01;3.60;99.90
17146;DHT22;8688;54.444;18.444;2023-04-01T09:19:01;3.50;99.90
17146;DHT22;8688;54.444;18.444;2023-04-01T09:21:42;3.60;99.90
17146;DHT22;8688;54.444;18.444;2023-04-01T09:27:26;3.60;99.90
17146;DHT22;8688;54.444;18.444;2023-04-01T09:36:19;3.50;99.90
17146;DHT22;8688;54.444;18.444;2023-04-01T09:38:56;3.50;99.90
17146;DHT22;8688;54.444;18.444;2023-04-01T09:41:30;3.60;99.90
17146;DHT22;8688;54.444;18.444;2023-04-01T09:44:02;3.60;99.90
17146;DHT22;8688;54.444;18.444;2023-04-01T09:46:50;3.50;99.90
17146;DHT22;8688;54.444;18.444;2023-04-01T09:49:37;3.50;99.90
17146;DHT22;8688;54.444;18.444;2023-04-01T09:52:19;3.50;99.90
17146;DHT22;8688;54.444;18.444;2023-04-01T09:55:12;3.50;99.90
17146;DHT22;8688;54.444;18.444;2023-04-01T10:04:16;3.50;99.90
17146;DHT22;8688;54.444;18.444;2023-04-01T10:13:16;3.40;99.90
17146;DHT22;8688;54.444;18.444;2023-04-01T10:19:15;3.30;99.90
17146;DHT22;8688;54.444;18.444;2023-04-01T10:22:00;3.30;99.90
17146;DHT22;8688;54.444;18.444;2023-04-01T10:24:56;3.30;99.90
17146;DHT22;8688;54.444;18.444;2023-04-01T10:27:56;3.30;99.90
17146;DHT22;8688;54.444;18.444;2023-04-01T10:31:01;3.20;99.90
17146;DHT22;8688;54.444;18.444;2023-04-01T10:33:59;3.20;99.90
17146;DHT22;8688;54.444;18.444;2023-04-01T10:36:47;3.30;99.90
17146;DHT22;8688;54.444;18.444;2023-04-01T10:39:34;3.40;99.90
17146;DHT22;8688;54.444;18.444;2023-04-01T10:51:25;3.20;99.90
17146;DHT22;8688;54.444;18.444;2023-04-01T10:54:17;3.30;99.90
17146;DHT22;8688;54.444;18.444;2023-04-01T10:56:51;3.20;99.90
17146;DHT22;8688;54.444;18.444;2023-04-01T11:02:43;3.30;99.90
17146;DHT22;8688;54.444;18.444;2023-04-01T11:08:59;3.20;99.90
17146;DHT22;8688;54.444;18.444;2023-04-01T11:11:55;3.20;99.90
17146;DHT22;8688;54.444;18.444;2023-04-01T11:24:08;3.20;99.90
17146;DHT22;8688;54.444;18.444;2023-04-01T11:26:50;3.30;99.90
17146;DHT22;8688;54.444;18.444;2023-04-01T11:32:20;3.20;99.90
17146;DHT22;8688;54.444;18.444;2023-04-01T11:35:01;3.20;99.90
17146;DHT22;8688;54.444;18.444;2023-04-01T11:37:38;3.30;99.90
17146;DHT22;8688;54.444;18.444;2023-04-01T11:40:19;3.20;99.90
17146;DHT22;8688;54.444;18.444;2023-04-01T11:42:54;3.10;99.90
17146;DHT22;8688;54.444;18.444;2023-04-01T11:45:33;3.20;99.90
17146;DHT22;8688;54.444;18.444;2023-04-01T11:48:17;3.20;99.90
17146;DHT22;8688;54.444;18.444;2023-04-01T11:50:58;3.20;99.90
17146;DHT22;8688;54.444;18.444;2023-04-01T11:53:38;3.30;99.90
17146;DHT22;8688;54.444;18.444;2023-04-01T11:56:24;3.30;99.90
17146;DHT22;8688;54.444;18.444;2023-04-01T11:59:28;3.20;99.90
17146;DHT22;8688;54.444;18.444;2023-04-01T12:02:03;3.20;99.90
17146;DHT22;8688;54.444;18.444;2023-04-01T12:08:01;3.20;99.90
17146;DHT22;8688;54.444;18.444;2023-04-01T12:10:39;3.20;99.90
17146;DHT22;8688;54.444;18.444;2023-04-01T12:13:19;3.20;99.90
17146;DHT22;8688;54.444;18.444;2023-04-01T12:16:04;3.20;99.90
17146;DHT22;8688;54.444;18.444;2023-04-01T12:18:40;3.20;99.90
17146;DHT22;8688;54.444;18.444;2023-04-01T12:21:17;3.20;99.90
17146;DHT22;8688;54.444;18.444;2023-04-01T12:24:25;3.30;99.90
17146;DHT22;8688;54.444;18.444;2023-04-01T12:27:26;3.30;99.90
17146;DHT22;8688;54.444;18.444;2023-04-01T12:30:06;3.20;99.90
17146;DHT22;8688;54.444;18.444;2023-04-01T12:32:46;3.10;99.90
17146;DHT22;8688;54.444;18.444;2023-04-01T12:35:21;3.10;99.90
17146;DHT22;8688;54.444;18.444;2023-04-01T12:38:06;3.10;99.90
17146;DHT22;8688;54.444;18.444;2023-04-01T12:40:56;3.00;99.90
17146;DHT22;8688;54.444;18.444;2023-04-01T12:46:47;3.00;99.90
17146;DHT22;8688;54.444;18.444;2023-04-01T12:49:54;3.00;99.90
17146;DHT22;8688;54.444;18.444;2023-04-01T12:52:30;3.00;99.90
17146;DHT22;8688;54.444;18.444;2023-04-01T12:58:43;3.00;99.90
17146;DHT22;8688;54.444;18.444;2023-04-01T13:01:29;3.00;99.90
17146;DHT22;8688;54.444;18.444;2023-04-01T13:04:29;3.00;99.90
17146;DHT22;8688;54.444;18.444;2023-04-01T13:07:19;3.00;99.90
17146;DHT22;8688;54.444;18.444;2023-04-01T13:09:56;3.00;99.90
17146;DHT22;8688;54.444;18.444;2023-04-01T13:15:28;3.10;99.90
17146;DHT22;8688;54.444;18.444;2023-04-01T13:18:05;3.00;99.90
17146;DHT22;8688;54.444;18.444;2023-04-01T13:20:43;2.90;99.90
17146;DHT22;8688;54.444;18.444;2023-04-01T13:23:20;3.00;99.90
17146;DHT22;8688;54.444;18.444;2023-04-01T13:25:57;2.80;99.90
17146;DHT22;8688;54.444;18.444;2023-04-01T13:28:28;2.90;99.90
17146;DHT22;8688;54.444;18.444;2023-04-01T13:31:01;2.90;99.90
17146;DHT22;8688;54.444;18.444;2023-04-01T13:33:36;2.90;99.90
17146;DHT22;8688;54.444;18.444;2023-04-01T13:36:19;2.80;99.90
17146;DHT22;8688;54.444;18.444;2023-04-01T13:39:06;2.90;99.90
17146;DHT22;8688;54.444;18.444;2023-04-01T13:41:53;2.90;99.90
17146;DHT22;8688;54.444;18.444;2023-04-01T13:44:29;2.80;99.90
17146;DHT22;8688;54.444;18.444;2023-04-01T13:47:19;2.80;99.90
17146;DHT22;8688;54.444;18.444;2023-04-01T13:50:05;2.80;99.90
17146;DHT22;8688;54.444;18.444;2023-04-01T13:52:54;2.80;99.90
17146;DHT22;8688;54.444;18.444;2023-04-01T13:55:53;2.80;99.90
17146;DHT22;8688;54.444;18.444;2023-04-01T14:01:21;2.80;99.90
17146;DHT22;8688;54.444;18.444;2023-04-01T14:06:59;2.90;99.90
17146;DHT22;8688;54.444;18.444;2023-04-01T14:09:45;2.80;99.90
17146;DHT22;8688;54.444;18.444;2023-04-01T14:12:27;2.70;99.90
17146;DHT22;8688;54.444;18.444;2023-04-01T14:15:11;2.80;99.90
17146;DHT22;8688;54.444;18.444;2023-04-01T14:18:07;2.80;99.90
17146;DHT22;8688;54.444;18.444;2023-04-01T14:20:40;2.70;99.90
17146;DHT22;8688;54.444;18.444;2023-04-01T14:23:39;2.80;99.90
17146;DHT22;8688;54.444;18.444;2023-04-01T14:26:39;2.80;99.90
17146;DHT22;8688;54.444;18.444;2023-04-01T14:29:20;2.70;99.90
17146;DHT22;8688;54.444;18.444;2023-04-01T14:31:59;2.70;99.90
17146;DHT22;8688;54.444;18.444;2023-04-01T14:34:39;2.70;99.90
17146;DHT22;8688;54.444;18.444;2023-04-01T14:37:17;2.70;99.90
17146;DHT22;8688;54.444;18.444;2023-04-01T14:40:19;2.70;99.90
17146;DHT22;8688;54.444;18.444;2023-04-01T14:43:23;2.70;99.90
17146;DHT22;8688;54.444;18.444;2023-04-01T14:46:13;2.70;99.90
17146;DHT22;8688;54.444;18.444;2023-04-01T14:48:51;2.70;99.90
17146;DHT22;8688;54.444;18.444;2023-04-01T14:51:23;2.80;99.90
17146;DHT22;8688;54.444;18.444;2023-04-01T14:54:02;2.70;99.90
17146;DHT22;8688;54.444;18.444;2023-04-01T14:56:38;2.70;99.90
17146;DHT22;8688;54.444;18.444;2023-04-01T14:59:13;2.70;99.90
17146;DHT22;8688;54.444;18.444;2023-04-01T15:01:47;2.60;99.90
17146;DHT22;8688;54.444;18.444;2023-04-01T15:04:37;2.60;99.90
17146;DHT22;8688;54.444;18.444;2023-04-01T15:07:35;2.60;99.90
17146;DHT22;8688;54.444;18.444;2023-04-01T15:10:12;2.60;99.90
17146;DHT22;8688;54.444;18.444;2023-04-01T15:12:53;2.60;99.90
17146;DHT22;8688;54.444;18.444;2023-04-01T15:15:32;2.60;99.90
17146;DHT22;8688;54.444;18.444;2023-04-01T15:18:09;2.50;99.90
17146;DHT22;8688;54.444;18.444;2023-04-01T15:21:02;2.50;99.90
17146;DHT22;8688;54.444;18.444;2023-04-01T15:23:45;2.50;99.90
17146;DHT22;8688;54.444;18.444;2023-04-01T15:26:28;2.50;99.90
17146;DHT22;8688;54.444;18.444;2023-04-01T15:29:04;2.50;99.90
17146;DHT22;8688;54.444;18.444;2023-04-01T15:31:40;2.50;99.90
17146;DHT22;8688;54.444;18.444;2023-04-01T15:34:23;2.50;99.90
17146;DHT22;8688;54.444;18.444;2023-04-01T15:36:59;2.50;99.90
17146;DHT22;8688;54.444;18.444;2023-04-01T15:39:38;2.50;99.90
17146;DHT22;8688;54.444;18.444;2023-04-01T15:42:27;2.40;99.90
17146;DHT22;8688;54.444;18.444;2023-04-01T15:45:04;2.40;99.90
17146;DHT22;8688;54.444;18.444;2023-04-01T15:47:42;2.50;99.90
17146;DHT22;8688;54.444;18.444;2023-04-01T15:50:47;2.40;99.90
17146;DHT22;8688;54.444;18.444;2023-04-01T15:56:44;2.50;99.90
17146;DHT22;8688;54.444;18.444;2023-04-01T15:59:27;2.40;99.90
17146;DHT22;8688;54.444;18.444;2023-04-01T16:02:07;2.40;99.90
17146;DHT22;8688;54.444;18.444;2023-04-01T16:04:50;2.40;99.90
17146;DHT22;8688;54.444;18.444;2023-04-01T16:07:49;2.40;99.90
17146;DHT22;8688;54.444;18.444;2023-04-01T16:10:34;2.40;99.90
17146;DHT22;8688;54.444;18.444;2023-04-01T16:13:25;2.50;99.90
17146;DHT22;8688;54.444;18.444;2023-04-01T16:16:03;2.40;99.90
17146;DHT22;8688;54.444;18.444;2023-04-01T16:18:50;2.40;99.90
17146;DHT22;8688;54.444;18.444;2023-04-01T16:21:35;2.40;99.90
17146;DHT22;8688;54.444;18.444;2023-04-01T16:24:14;2.40;99.90
17146;DHT22;8688;54.444;18.444;2023-04-01T16:26:50;2.40;99.90
17146;DHT22;8688;54.444;18.444;2023-04-01T16:29:26;2.40;99.90
17146;DHT22;8688;54.444;18.444;2023-04-01T16:32:00;2.30;99.90
17146;DHT22;8688;54.444;18.444;2023-04-01T16:34:34;2.30;99.90
17146;DHT22;8688;54.444;18.444;2023-04-01T16:37:09;2.30;99.90
17146;DHT22;8688;54.444;18.444;2023-04-01T16:39:44;2.30;99.90
17146;DHT22;8688;54.444;18.444;2023-04-01T16:42:32;2.30;99.90
17146;DHT22;8688;54.444;18.444;2023-04-01T16:45:17;2.30;99.90
17146;DHT22;8688;54.444;18.444;2023-04-01T16:47:48;2.30;99.90
17146;DHT22;8688;54.444;18.444;2023-04-01T16:50:20;2.30;99.90
17146;DHT22;8688;54.444;18.444;2023-04-01T16:52:59;2.20;99.90
17146;DHT22;8688;54.444;18.444;2023-04-01T16:55:35;2.30;99.90
17146;DHT22;8688;54.444;18.444;2023-04-01T16:58:10;2.20;99.90
17146;DHT22;8688;54.444;18.444;2023-04-01T17:00:49;2.20;99.90
17146;DHT22;8688;54.444;18.444;2023-04-01T17:03:22;2.20;99.90
17146;DHT22;8688;54.444;18.444;2023-04-01T17:06:02;2.20;99.90
17146;DHT22;8688;54.444;18.444;2023-04-01T17:08:52;2.20;99.90
17146;DHT22;8688;54.444;18.444;2023-04-01T17:11:26;2.20;99.90
17146;DHT22;8688;54.444;18.444;2023-04-01T17:14:04;2.20;99.90
17146;DHT22;8688;54.444;18.444;2023-04-01T17:16:52;2.30;99.90
17146;DHT22;8688;54.444;18.444;2023-04-01T17:19:41;2.30;99.90
17146;DHT22;8688;54.444;18.444;2023-04-01T17:22:22;2.30;99.90
17146;DHT22;8688;54.444;18.444;2023-04-01T17:25:10;2.30;99.90
17146;DHT22;8688;54.444;18.444;2023-04-01T17:27:46;2.30;99.90
17146;DHT22;8688;54.444;18.444;2023-04-01T17:30:28;2.30;99.90
17146;DHT22;8688;54.444;18.444;2023-04-01T17:33:18;2.30;99.90
17146;DHT22;8688;54.444;18.444;2023-04-01T17:35:58;2.30;99.90
17146;DHT22;8688;54.444;18.444;2023-04-01T17:38:54;2.30;99.90
17146;DHT22;8688;54.444;18.444;2023-04-01T17:41:36;2.30;99.90
17146;DHT22;8688;54.444;18.444;2023-04-01T17:44:21;2.30;99.90
17146;DHT22;8688;54.444;18.444;2023-04-01T17:47:25;2.30;99.90
17146;DHT22;8688;54.444;18.444;2023-04-01T17:50:13;2.30;99.90
17146;DHT22;8688;54.444;18.444;2023-04-01T17:52:45;2.30;99.90
17146;DHT22;8688;54.444;18.444;2023-04-01T17:55:37;2.30;99.90
17146;DHT22;8688;54.444;18.444;2023-04-01T17:58:13;2.30;99.90
17146;DHT22;8688;54.444;18.444;2023-04-01T18:00:55;2.30;99.90
17146;DHT22;8688;54.444;18.444;2023-04-01T18:03:54;2.30;99.90
17146;DHT22;8688;54.444;18.444;2023-04-01T18:06:32;2.30;99.90
17146;DHT22;8688;54.444;18.444;2023-04-01T18:09:08;2.30;99.90
17146;DHT22;8688;54.444;18.444;2023-04-01T18:11:53;2.30;99.90